sensor_id;sensor_type;location;lat;lon;timestamp;P1;durP1;ratioP1;P2;durP2;ratioP2
83099;SDS011;72972;51.784;4.660;2024-01-15T00:00:18;5.22;;;1.48;;
83099;SDS011;72972;51.784;4.660;2024-01-15T00:02:44;4.93;;;1.67;;
83099;SDS011;72972;51.784;4.660;2024-01-15T00:05:13;4.45;;;1.23;;
83099;SDS011;72972;51.784;4.660;2024-01-15T00:07:47;4.72;;;1.63;;
83099;SDS011;72972;51.784;4.660;2024-01-15T00:10:27;2.20;;;1.00;;
83099;SDS011;72972;51.784;4.660;2024-01-15T00:12:57;4.75;;;1.60;;
83099;SDS011;72972;51.784;4.660;2024-01-15T00:15:26;9.50;;;2.05;;
83099;SDS011;72972;51.784;4.660;2024-01-15T00:17:55;2.80;;;1.13;;
83099;SDS011;72972;51.784;4.660;2024-01-15T00:20:27;5.82;;;1.60;;
83099;SDS011;72972;51.784;4.660;2024-01-15T00:23:02;4.40;;;1.52;;
83099;SDS011;72972;51.784;4.660;2024-01-15T00:25:52;5.18;;;1.30;;
83099;SDS011;72972;51.784;4.660;2024-01-15T00:28:18;7.55;;;1.20;;
83099;SDS011;72972;51.784;4.660;2024-01-15T00:30:50;6.82;;;1.23;;
83099;SDS011;72972;51.784;4.660;2024-01-15T00:33:24;4.80;;;1.45;;
83099;SDS011;72972;51.784;4.660;2024-01-15T00:35:55;4.18;;;1.17;;
83099;SDS011;72972;51.784;4.660;2024-01-15T00:38:30;8.35;;;1.67;;
83099;SDS011;72972;51.784;4.660;2024-01-15T00:41:06;9.63;;;1.27;;
83099;SDS011;72972;51.784;4.660;2024-01-15T00:43:46;7.20;;;1.92;;
83099;SDS011;72972;51.784;4.660;2024-01-15T00:46:14;9.30;;;1.58;;
83099;SDS011;72972;51.784;4.660;2024-01-15T00:48:43;5.60;;;1.20;;
83099;SDS011;72972;51.784;4.660;2024-01-15T00:51:09;3.35;;;1.50;;
83099;SDS011;72972;51.784;4.660;2024-01-15T00:53:40;5.95;;;1.33;;
83099;SDS011;72972;51.784;4.660;2024-01-15T00:56:17;3.53;;;1.25;;
83099;SDS011;72972;51.784;4.660;2024-01-15T00:59:04;6.15;;;1.58;;
83099;SDS011;72972;51.784;4.660;2024-01-15T01:01:40;7.78;;;1.60;;
83099;SDS011;72972;51.784;4.660;2024-01-15T01:04:21;7.93;;;1.73;;
83099;SDS011;72972;51.784;4.660;2024-01-15T01:09:52;2.85;;;1.30;;
83099;SDS011;72972;51.784;4.660;2024-01-15T01:12:21;5.68;;;1.40;;
83099;SDS011;72972;51.784;4.660;2024-01-15T01:14:52;13.35;;;1.73;;
83099;SDS011;72972;51.784;4.660;2024-01-15T01:17:18;7.38;;;1.80;;
83099;SDS011;72972;51.784;4.660;2024-01-15T01:19:49;4.53;;;1.45;;
83099;SDS011;72972;51.784;4.660;2024-01-15T01:22:18;7.03;;;1.60;;
83099;SDS011;72972;51.784;4.660;2024-01-15T01:24:52;4.95;;;1.33;;
83099;SDS011;72972;51.784;4.660;2024-01-15T01:27:21;7.40;;;1.67;;
83099;SDS011;72972;51.784;4.660;2024-01-15T01:29:48;3.70;;;1.30;;
83099;SDS011;72972;51.784;4.660;2024-01-15T01:32:22;6.43;;;1.42;;
83099;SDS011;72972;51.784;4.660;2024-01-15T01:34:48;9.73;;;1.80;;
83099;SDS011;72972;51.784;4.660;2024-01-15T01:37:17;9.10;;;1.83;;
83099;SDS011;72972;51.784;4.660;2024-01-15T01:39:49;8.48;;;1.70;;
83099;SDS011;72972;51.784;4.660;2024-01-15T01:42:27;7.82;;;1.65;;
83099;SDS011;72972;51.784;4.660;2024-01-15T01:45:02;5.78;;;1.40;;
83099;SDS011;72972;51.784;4.660;2024-01-15T01:47:34;5.40;;;1.40;;
83099;SDS011;72972;51.784;4.660;2024-01-15T01:50:09;4.95;;;1.10;;
83099;SDS011;72972;51.784;4.660;2024-01-15T01:52:41;6.50;;;1.83;;
83099;SDS011;72972;51.784;4.660;2024-01-15T01:55:07;7.57;;;1.20;;
83099;SDS011;72972;51.784;4.660;2024-01-15T01:57:40;7.20;;;1.63;;
83099;SDS011;72972;51.784;4.660;2024-01-15T02:00:15;5.97;;;1.42;;
83099;SDS011;72972;51.784;4.660;2024-01-15T02:02:55;4.07;;;1.30;;
83099;SDS011;72972;51.784;4.660;2024-01-15T02:05:21;3.85;;;1.45;;
83099;SDS011;72972;51.784;4.660;2024-01-15T02:07:48;1.85;;;1.23;;
83099;SDS011;72972;51.784;4.660;2024-01-15T02:10:26;5.00;;;1.17;;
83099;SDS011;72972;51.784;4.660;2024-01-15T02:12:54;2.55;;;1.23;;
83099;SDS011;72972;51.784;4.660;2024-01-15T02:15:20;1.65;;;0.73;;
83099;SDS011;72972;51.784;4.660;2024-01-15T02:17:58;2.10;;;0.80;;
83099;SDS011;72972;51.784;4.660;2024-01-15T02:20:25;1.15;;;0.90;;
83099;SDS011;72972;51.784;4.660;2024-01-15T02:22:51;1.45;;;0.95;;
83099;SDS011;72972;51.784;4.660;2024-01-15T02:25:22;3.75;;;1.60;;
83099;SDS011;72972;51.784;4.660;2024-01-15T02:27:48;6.72;;;1.25;;
83099;SDS011;72972;51.784;4.660;2024-01-15T02:30:16;4.22;;;1.42;;
83099;SDS011;72972;51.784;4.660;2024-01-15T02:32:45;2.15;;;0.88;;
83099;SDS011;72972;51.784;4.660;2024-01-15T02:35:26;6.15;;;1.15;;
83099;SDS011;72972;51.784;4.660;2024-01-15T02:37:52;4.45;;;1.27;;
83099;SDS011;72972;51.784;4.660;2024-01-15T02:40:21;4.13;;;1.02;;
83099;SDS011;72972;51.784;4.660;2024-01-15T02:42:47;1.60;;;0.90;;
83099;SDS011;72972;51.784;4.660;2024-01-15T02:45:19;7.75;;;1.20;;
83099;SDS011;72972;51.784;4.660;2024-01-15T02:47:45;2.72;;;1.30;;
83099;SDS011;72972;51.784;4.660;2024-01-15T02:50:11;4.03;;;1.25;;
83099;SDS011;72972;51.784;4.660;2024-01-15T02:52:43;5.97;;;1.23;;
83099;SDS011;72972;51.784;4.660;2024-01-15T02:55:09;1.80;;;1.55;;
83099;SDS011;72972;51.784;4.660;2024-01-15T02:57:38;5.55;;;1.25;;
83099;SDS011;72972;51.784;4.660;2024-01-15T03:00:04;3.58;;;1.40;;
83099;SDS011;72972;51.784;4.660;2024-01-15T03:02:43;8.20;;;1.50;;
83099;SDS011;72972;51.784;4.660;2024-01-15T03:05:15;3.15;;;1.23;;
83099;SDS011;72972;51.784;4.660;2024-01-15T03:07:44;4.90;;;1.27;;
83099;SDS011;72972;51.784;4.660;2024-01-15T03:10:15;9.32;;;1.30;;
83099;SDS011;72972;51.784;4.660;2024-01-15T03:12:44;7.90;;;2.15;;
83099;SDS011;72972;51.784;4.660;2024-01-15T03:15:15;4.55;;;1.75;;
83099;SDS011;72972;51.784;4.660;2024-01-15T03:17:45;3.95;;;1.50;;
83099;SDS011;72972;51.784;4.660;2024-01-15T03:20:17;4.25;;;1.95;;
83099;SDS011;72972;51.784;4.660;2024-01-15T03:22:42;3.55;;;1.42;;
83099;SDS011;72972;51.784;4.660;2024-01-15T03:25:13;3.50;;;0.93;;
83099;SDS011;72972;51.784;4.660;2024-01-15T03:27:42;2.58;;;1.08;;
83099;SDS011;72972;51.784;4.660;2024-01-15T03:30:10;4.40;;;1.02;;
83099;SDS011;72972;51.784;4.660;2024-01-15T03:32:39;3.55;;;0.93;;
83099;SDS011;72972;51.784;4.660;2024-01-15T03:35:08;1.73;;;0.95;;
83099;SDS011;72972;51.784;4.660;2024-01-15T03:37:34;1.38;;;0.85;;
83099;SDS011;72972;51.784;4.660;2024-01-15T03:40:06;5.47;;;1.35;;
83099;SDS011;72972;51.784;4.660;2024-01-15T03:42:38;6.43;;;1.48;;
83099;SDS011;72972;51.784;4.660;2024-01-15T03:45:07;1.10;;;1.05;;
83099;SDS011;72972;51.784;4.660;2024-01-15T03:47:45;1.05;;;0.85;;
83099;SDS011;72972;51.784;4.660;2024-01-15T03:50:14;2.03;;;1.40;;
83099;SDS011;72972;51.784;4.660;2024-01-15T03:53:09;2.35;;;0.90;;
83099;SDS011;72972;51.784;4.660;2024-01-15T03:55:40;1.40;;;1.02;;
83099;SDS011;72972;51.784;4.660;2024-01-15T03:58:05;2.75;;;0.80;;
83099;SDS011;72972;51.784;4.660;2024-01-15T04:00:34;3.63;;;1.05;;
83099;SDS011;72972;51.784;4.660;2024-01-15T04:03:00;2.00;;;0.80;;
83099;SDS011;72972;51.784;4.660;2024-01-15T04:05:29;2.47;;;0.90;;
83099;SDS011;72972;51.784;4.660;2024-01-15T04:07:54;1.70;;;1.02;;
83099;SDS011;72972;51.784;4.660;2024-01-15T04:10:20;4.30;;;1.27;;
83099;SDS011;72972;51.784;4.660;2024-01-15T04:12:51;3.25;;;1.50;;
83099;SDS011;72972;51.784;4.660;2024-01-15T04:15:19;3.90;;;1.20;;
83099;SDS011;72972;51.784;4.660;2024-01-15T04:17:51;3.47;;;1.23;;
83099;SDS011;72972;51.784;4.660;2024-01-15T04:20:20;2.88;;;0.90;;
83099;SDS011;72972;51.784;4.660;2024-01-15T04:22:46;2.83;;;1.17;;
83099;SDS011;72972;51.784;4.660;2024-01-15T04:25:14;4.80;;;1.33;;
83099;SDS011;72972;51.784;4.660;2024-01-15T04:27:43;3.30;;;1.10;;
83099;SDS011;72972;51.784;4.660;2024-01-15T04:30:12;2.30;;;0.60;;
83099;SDS011;72972;51.784;4.660;2024-01-15T04:32:38;0.77;;;0.70;;
83099;SDS011;72972;51.784;4.660;2024-01-15T04:35:09;2.05;;;0.95;;
83099;SDS011;72972;51.784;4.660;2024-01-15T04:37:35;0.88;;;0.70;;
83099;SDS011;72972;51.784;4.660;2024-01-15T04:40:12;1.40;;;0.80;;
83099;SDS011;72972;51.784;4.660;2024-01-15T04:42:38;0.93;;;0.70;;
83099;SDS011;72972;51.784;4.660;2024-01-15T04:45:04;6.88;;;1.13;;
83099;SDS011;72972;51.784;4.660;2024-01-15T04:47:38;1.10;;;0.75;;
83099;SDS011;72972;51.784;4.660;2024-01-15T04:50:15;1.90;;;0.82;;
83099;SDS011;72972;51.784;4.660;2024-01-15T04:52:41;1.33;;;0.77;;
83099;SDS011;72972;51.784;4.660;2024-01-15T04:55:12;1.73;;;0.73;;
83099;SDS011;72972;51.784;4.660;2024-01-15T04:57:37;3.13;;;0.98;;
83099;SDS011;72972;51.784;4.660;2024-01-15T05:00:16;5.13;;;0.85;;
83099;SDS011;72972;51.784;4.660;2024-01-15T05:02:42;1.33;;;1.00;;
83099;SDS011;72972;51.784;4.660;2024-01-15T05:05:13;2.63;;;1.10;;
83099;SDS011;72972;51.784;4.660;2024-01-15T05:07:42;1.85;;;1.10;;
83099;SDS011;72972;51.784;4.660;2024-01-15T05:10:10;2.03;;;1.10;;
83099;SDS011;72972;51.784;4.660;2024-01-15T05:12:46;3.17;;;1.40;;
83099;SDS011;72972;51.784;4.660;2024-01-15T05:15:12;4.68;;;1.30;;
83099;SDS011;72972;51.784;4.660;2024-01-15T05:17:38;5.53;;;1.55;;
83099;SDS011;72972;51.784;4.660;2024-01-15T05:20:06;7.10;;;1.63;;
83099;SDS011;72972;51.784;4.660;2024-01-15T05:22:33;3.17;;;1.50;;
83099;SDS011;72972;51.784;4.660;2024-01-15T05:25:08;2.13;;;1.35;;
83099;SDS011;72972;51.784;4.660;2024-01-15T05:27:34;7.38;;;1.95;;
83099;SDS011;72972;51.784;4.660;2024-01-15T05:30:05;2.50;;;1.17;;
83099;SDS011;72972;51.784;4.660;2024-01-15T05:32:34;3.33;;;1.40;;
83099;SDS011;72972;51.784;4.660;2024-01-15T05:35:05;1.42;;;1.10;;
83099;SDS011;72972;51.784;4.660;2024-01-15T05:37:36;3.85;;;1.40;;
83099;SDS011;72972;51.784;4.660;2024-01-15T05:40:37;2.17;;;1.40;;
83099;SDS011;72972;51.784;4.660;2024-01-15T05:43:08;2.38;;;1.05;;
83099;SDS011;72972;51.784;4.660;2024-01-15T05:45:43;4.25;;;1.70;;
83099;SDS011;72972;51.784;4.660;2024-01-15T05:48:11;4.18;;;2.03;;
83099;SDS011;72972;51.784;4.660;2024-01-15T05:50:41;3.25;;;1.85;;
83099;SDS011;72972;51.784;4.660;2024-01-15T05:53:19;6.20;;;2.35;;
83099;SDS011;72972;51.784;4.660;2024-01-15T05:55:49;4.43;;;2.67;;
83099;SDS011;72972;51.784;4.660;2024-01-15T05:58:22;3.55;;;2.20;;
83099;SDS011;72972;51.784;4.660;2024-01-15T06:00:51;4.53;;;1.92;;
83099;SDS011;72972;51.784;4.660;2024-01-15T06:03:16;4.40;;;1.80;;
83099;SDS011;72972;51.784;4.660;2024-01-15T06:05:45;3.85;;;1.95;;
83099;SDS011;72972;51.784;4.660;2024-01-15T06:08:20;5.57;;;2.10;;
83099;SDS011;72972;51.784;4.660;2024-01-15T06:10:48;3.58;;;2.03;;
83099;SDS011;72972;51.784;4.660;2024-01-15T06:13:18;3.65;;;2.00;;
83099;SDS011;72972;51.784;4.660;2024-01-15T06:15:44;7.28;;;2.33;;
83099;SDS011;72972;51.784;4.660;2024-01-15T06:18:10;5.38;;;2.05;;
83099;SDS011;72972;51.784;4.660;2024-01-15T06:20:35;2.50;;;1.70;;
83099;SDS011;72972;51.784;4.660;2024-01-15T06:23:05;2.63;;;1.67;;
83099;SDS011;72972;51.784;4.660;2024-01-15T06:25:38;7.35;;;2.67;;
83099;SDS011;72972;51.784;4.660;2024-01-15T06:28:04;5.35;;;2.75;;
83099;SDS011;72972;51.784;4.660;2024-01-15T06:30:32;9.40;;;3.65;;
83099;SDS011;72972;51.784;4.660;2024-01-15T06:33:01;5.28;;;2.47;;
83099;SDS011;72972;51.784;4.660;2024-01-15T06:35:27;3.40;;;2.40;;
83099;SDS011;72972;51.784;4.660;2024-01-15T06:37:52;8.60;;;2.20;;
83099;SDS011;72972;51.784;4.660;2024-01-15T06:40:18;2.30;;;1.50;;
83099;SDS011;72972;51.784;4.660;2024-01-15T06:43:00;3.70;;;1.70;;
83099;SDS011;72972;51.784;4.660;2024-01-15T06:45:26;1.75;;;1.20;;
83099;SDS011;72972;51.784;4.660;2024-01-15T06:47:57;2.28;;;1.55;;
83099;SDS011;72972;51.784;4.660;2024-01-15T06:50:28;1.30;;;1.20;;
83099;SDS011;72972;51.784;4.660;2024-01-15T06:52:54;4.50;;;1.67;;
83099;SDS011;72972;51.784;4.660;2024-01-15T06:55:25;5.80;;;1.25;;
83099;SDS011;72972;51.784;4.660;2024-01-15T06:57:51;3.95;;;1.33;;
83099;SDS011;72972;51.784;4.660;2024-01-15T07:00:17;3.55;;;1.60;;
83099;SDS011;72972;51.784;4.660;2024-01-15T07:02:47;3.20;;;1.80;;
83099;SDS011;72972;51.784;4.660;2024-01-15T07:05:12;2.92;;;1.77;;
83099;SDS011;72972;51.784;4.660;2024-01-15T07:07:38;5.20;;;1.88;;
83099;SDS011;72972;51.784;4.660;2024-01-15T07:10:12;3.70;;;1.50;;
83099;SDS011;72972;51.784;4.660;2024-01-15T07:12:38;2.75;;;1.65;;
83099;SDS011;72972;51.784;4.660;2024-01-15T07:15:09;1.63;;;1.23;;
83099;SDS011;72972;51.784;4.660;2024-01-15T07:17:38;3.33;;;1.58;;
83099;SDS011;72972;51.784;4.660;2024-01-15T07:20:10;4.95;;;1.98;;
83099;SDS011;72972;51.784;4.660;2024-01-15T07:22:44;3.83;;;1.48;;
83099;SDS011;72972;51.784;4.660;2024-01-15T07:25:16;4.07;;;1.40;;
83099;SDS011;72972;51.784;4.660;2024-01-15T07:27:51;3.75;;;1.33;;
83099;SDS011;72972;51.784;4.660;2024-01-15T07:30:19;6.50;;;3.00;;
83099;SDS011;72972;51.784;4.660;2024-01-15T07:32:49;8.77;;;2.88;;
83099;SDS011;72972;51.784;4.660;2024-01-15T07:35:27;5.70;;;2.03;;
83099;SDS011;72972;51.784;4.660;2024-01-15T07:37:55;4.93;;;1.73;;
83099;SDS011;72972;51.784;4.660;2024-01-15T07:40:24;2.38;;;1.38;;
83099;SDS011;72972;51.784;4.660;2024-01-15T07:42:50;4.95;;;1.95;;
83099;SDS011;72972;51.784;4.660;2024-01-15T07:45:16;2.72;;;1.55;;
83099;SDS011;72972;51.784;4.660;2024-01-15T07:47:47;6.88;;;2.22;;
83099;SDS011;72972;51.784;4.660;2024-01-15T07:50:18;5.13;;;2.03;;
83099;SDS011;72972;51.784;4.660;2024-01-15T07:52:44;2.50;;;1.80;;
83099;SDS011;72972;51.784;4.660;2024-01-15T07:55:10;5.00;;;1.83;;
83099;SDS011;72972;51.784;4.660;2024-01-15T07:57:39;3.97;;;1.65;;
83099;SDS011;72972;51.784;4.660;2024-01-15T08:00:08;3.53;;;1.73;;
83099;SDS011;72972;51.784;4.660;2024-01-15T08:02:37;7.13;;;2.10;;
83099;SDS011;72972;51.784;4.660;2024-01-15T08:05:03;3.70;;;2.38;;
83099;SDS011;72972;51.784;4.660;2024-01-15T08:07:41;5.22;;;2.15;;
83099;SDS011;72972;51.784;4.660;2024-01-15T08:10:09;10.98;;;2.75;;
83099;SDS011;72972;51.784;4.660;2024-01-15T08:12:34;6.28;;;2.33;;
83099;SDS011;72972;51.784;4.660;2024-01-15T08:15:03;4.40;;;2.22;;
83099;SDS011;72972;51.784;4.660;2024-01-15T08:17:36;6.68;;;2.58;;
83099;SDS011;72972;51.784;4.660;2024-01-15T08:20:03;3.25;;;1.58;;
83099;SDS011;72972;51.784;4.660;2024-01-15T08:22:30;8.90;;;2.92;;
83099;SDS011;72972;51.784;4.660;2024-01-15T08:25:05;3.85;;;1.52;;
83099;SDS011;72972;51.784;4.660;2024-01-15T08:27:34;2.10;;;1.52;;
83099;SDS011;72972;51.784;4.660;2024-01-15T08:30:03;6.75;;;2.15;;
83099;SDS011;72972;51.784;4.660;2024-01-15T08:32:32;3.08;;;1.85;;
83099;SDS011;72972;51.784;4.660;2024-01-15T08:35:12;4.03;;;2.28;;
83099;SDS011;72972;51.784;4.660;2024-01-15T08:37:46;2.75;;;1.80;;
83099;SDS011;72972;51.784;4.660;2024-01-15T08:40:16;6.95;;;2.05;;
83099;SDS011;72972;51.784;4.660;2024-01-15T08:42:44;7.85;;;1.98;;
83099;SDS011;72972;51.784;4.660;2024-01-15T08:45:14;7.80;;;1.88;;
83099;SDS011;72972;51.784;4.660;2024-01-15T08:47:49;7.25;;;2.25;;
83099;SDS011;72972;51.784;4.660;2024-01-15T08:50:17;3.20;;;1.40;;
83099;SDS011;72972;51.784;4.660;2024-01-15T08:52:49;2.90;;;1.85;;
83099;SDS011;72972;51.784;4.660;2024-01-15T08:55:17;3.15;;;1.60;;
83099;SDS011;72972;51.784;4.660;2024-01-15T08:57:48;6.20;;;1.98;;
83099;SDS011;72972;51.784;4.660;2024-01-15T09:00:22;9.60;;;2.33;;
83099;SDS011;72972;51.784;4.660;2024-01-15T09:02:49;5.57;;;1.77;;
83099;SDS011;72972;51.784;4.660;2024-01-15T09:05:15;4.70;;;1.67;;
83099;SDS011;72972;51.784;4.660;2024-01-15T09:07:56;4.45;;;1.70;;
83099;SDS011;72972;51.784;4.660;2024-01-15T09:10:29;3.75;;;1.83;;
83099;SDS011;72972;51.784;4.660;2024-01-15T09:12:55;7.32;;;1.90;;
83099;SDS011;72972;51.784;4.660;2024-01-15T09:15:21;6.75;;;1.70;;
83099;SDS011;72972;51.784;4.660;2024-01-15T09:17:55;2.78;;;1.70;;
83099;SDS011;72972;51.784;4.660;2024-01-15T09:20:29;14.13;;;1.88;;
83099;SDS011;72972;51.784;4.660;2024-01-15T09:22:59;2.10;;;1.33;;
83099;SDS011;72972;51.784;4.660;2024-01-15T09:25:27;9.00;;;1.60;;
83099;SDS011;72972;51.784;4.660;2024-01-15T09:27:56;5.43;;;1.50;;
83099;SDS011;72972;51.784;4.660;2024-01-15T09:30:24;11.25;;;1.92;;
83099;SDS011;72972;51.784;4.660;2024-01-15T09:32:53;3.25;;;1.02;;
83099;SDS011;72972;51.784;4.660;2024-01-15T09:35:28;7.68;;;1.63;;
83099;SDS011;72972;51.784;4.660;2024-01-15T09:37:57;8.05;;;1.25;;
83099;SDS011;72972;51.784;4.660;2024-01-15T09:40:31;3.83;;;1.33;;
83099;SDS011;72972;51.784;4.660;2024-01-15T09:43:02;2.05;;;1.10;;
83099;SDS011;72972;51.784;4.660;2024-01-15T09:45:34;5.38;;;1.27;;
83099;SDS011;72972;51.784;4.660;2024-01-15T09:48:05;2.28;;;1.42;;
83099;SDS011;72972;51.784;4.660;2024-01-15T09:50:34;4.90;;;1.40;;
83099;SDS011;72972;51.784;4.660;2024-01-15T09:53:06;3.08;;;1.50;;
83099;SDS011;72972;51.784;4.660;2024-01-15T09:55:35;4.03;;;1.38;;
83099;SDS011;72972;51.784;4.660;2024-01-15T09:58:07;3.65;;;1.25;;
83099;SDS011;72972;51.784;4.660;2024-01-15T10:00:36;3.60;;;1.15;;
83099;SDS011;72972;51.784;4.660;2024-01-15T10:03:08;3.92;;;1.45;;
83099;SDS011;72972;51.784;4.660;2024-01-15T10:05:38;3.17;;;1.70;;
83099;SDS011;72972;51.784;4.660;2024-01-15T10:08:10;7.90;;;1.58;;
83099;SDS011;72972;51.784;4.660;2024-01-15T10:10:39;3.80;;;1.58;;
83099;SDS011;72972;51.784;4.660;2024-01-15T10:13:08;5.18;;;1.50;;
83099;SDS011;72972;51.784;4.660;2024-01-15T10:15:45;3.13;;;1.05;;
83099;SDS011;72972;51.784;4.660;2024-01-15T10:18:15;2.53;;;1.50;;
83099;SDS011;72972;51.784;4.660;2024-01-15T10:20:43;1.05;;;0.88;;
83099;SDS011;72972;51.784;4.660;2024-01-15T10:23:13;3.33;;;1.35;;
83099;SDS011;72972;51.784;4.660;2024-01-15T10:28:09;8.27;;;1.55;;
83099;SDS011;72972;51.784;4.660;2024-01-15T10:30:49;3.13;;;1.42;;
83099;SDS011;72972;51.784;4.660;2024-01-15T10:33:29;5.50;;;1.63;;
83099;SDS011;72972;51.784;4.660;2024-01-15T10:36:01;7.90;;;2.08;;
83099;SDS011;72972;51.784;4.660;2024-01-15T10:38:43;1.80;;;1.10;;
83099;SDS011;72972;51.784;4.660;2024-01-15T10:41:12;2.90;;;1.35;;
83099;SDS011;72972;51.784;4.660;2024-01-15T10:43:50;4.25;;;1.65;;
83099;SDS011;72972;51.784;4.660;2024-01-15T10:46:24;5.90;;;1.20;;
83099;SDS011;72972;51.784;4.660;2024-01-15T10:48:53;0.80;;;0.80;;
83099;SDS011;72972;51.784;4.660;2024-01-15T10:51:25;2.33;;;1.00;;
83099;SDS011;72972;51.784;4.660;2024-01-15T10:53:53;1.88;;;1.40;;
83099;SDS011;72972;51.784;4.660;2024-01-15T10:56:21;3.72;;;1.35;;
83099;SDS011;72972;51.784;4.660;2024-01-15T10:58:59;1.25;;;1.02;;
83099;SDS011;72972;51.784;4.660;2024-01-15T11:01:46;2.03;;;1.38;;
83099;SDS011;72972;51.784;4.660;2024-01-15T11:04:23;5.45;;;1.40;;
83099;SDS011;72972;51.784;4.660;2024-01-15T11:07:02;2.70;;;1.60;;
83099;SDS011;72972;51.784;4.660;2024-01-15T11:09:34;4.18;;;1.60;;
83099;SDS011;72972;51.784;4.660;2024-01-15T11:12:18;2.65;;;1.58;;
83099;SDS011;72972;51.784;4.660;2024-01-15T11:15:00;6.60;;;1.50;;
83099;SDS011;72972;51.784;4.660;2024-01-15T11:23:47;7.15;;;1.92;;
83099;SDS011;72972;51.784;4.660;2024-01-15T11:29:05;5.43;;;2.03;;
83099;SDS011;72972;51.784;4.660;2024-01-15T11:34:18;22.67;;;3.40;;
83099;SDS011;72972;51.784;4.660;2024-01-15T11:37:13;8.40;;;2.90;;
83099;SDS011;72972;51.784;4.660;2024-01-15T11:39:39;4.22;;;2.20;;
83099;SDS011;72972;51.784;4.660;2024-01-15T11:42:29;5.88;;;1.88;;
83099;SDS011;72972;51.784;4.660;2024-01-15T11:45:05;6.13;;;1.70;;
83099;SDS011;72972;51.784;4.660;2024-01-15T11:50:40;7.00;;;2.15;;
83099;SDS011;72972;51.784;4.660;2024-01-15T11:56:19;5.70;;;1.42;;
83099;SDS011;72972;51.784;4.660;2024-01-15T11:59:02;5.78;;;1.60;;
83099;SDS011;72972;51.784;4.660;2024-01-15T12:01:31;3.75;;;1.60;;
83099;SDS011;72972;51.784;4.660;2024-01-15T12:03:57;3.72;;;1.60;;
83099;SDS011;72972;51.784;4.660;2024-01-15T12:06:27;3.25;;;1.38;;
83099;SDS011;72972;51.784;4.660;2024-01-15T12:09:08;1.95;;;1.27;;
83099;SDS011;72972;51.784;4.660;2024-01-15T12:11:37;3.35;;;1.80;;
83099;SDS011;72972;51.784;4.660;2024-01-15T12:14:11;6.80;;;1.40;;
83099;SDS011;72972;51.784;4.660;2024-01-15T12:16:43;5.57;;;1.30;;
83099;SDS011;72972;51.784;4.660;2024-01-15T12:19:09;6.05;;;1.38;;
83099;SDS011;72972;51.784;4.660;2024-01-15T12:21:38;3.15;;;1.20;;
83099;SDS011;72972;51.784;4.660;2024-01-15T12:24:10;8.68;;;1.85;;
83099;SDS011;72972;51.784;4.660;2024-01-15T12:26:36;5.32;;;1.58;;
83099;SDS011;72972;51.784;4.660;2024-01-15T12:29:13;13.52;;;1.73;;
83099;SDS011;72972;51.784;4.660;2024-01-15T12:31:43;2.58;;;1.17;;
83099;SDS011;72972;51.784;4.660;2024-01-15T12:34:19;7.15;;;1.70;;
83099;SDS011;72972;51.784;4.660;2024-01-15T12:36:51;3.25;;;1.55;;
83099;SDS011;72972;51.784;4.660;2024-01-15T12:39:45;3.67;;;1.70;;
83099;SDS011;72972;51.784;4.660;2024-01-15T12:42:17;3.15;;;1.73;;
83099;SDS011;72972;51.784;4.660;2024-01-15T12:44:45;6.50;;;1.90;;
83099;SDS011;72972;51.784;4.660;2024-01-15T12:50:12;5.32;;;1.67;;
83099;SDS011;72972;51.784;4.660;2024-01-15T12:52:44;3.78;;;1.48;;
83099;SDS011;72972;51.784;4.660;2024-01-15T12:55:27;7.53;;;2.83;;
83099;SDS011;72972;51.784;4.660;2024-01-15T12:57:58;10.75;;;4.18;;
83099;SDS011;72972;51.784;4.660;2024-01-15T13:00:26;15.70;;;4.72;;
83099;SDS011;72972;51.784;4.660;2024-01-15T13:03:01;7.50;;;2.80;;
83099;SDS011;72972;51.784;4.660;2024-01-15T13:05:35;4.30;;;2.63;;
83099;SDS011;72972;51.784;4.660;2024-01-15T13:08:01;4.40;;;1.98;;
83099;SDS011;72972;51.784;4.660;2024-01-15T13:10:31;4.30;;;2.35;;
83099;SDS011;72972;51.784;4.660;2024-01-15T13:13:01;4.20;;;1.75;;
83099;SDS011;72972;51.784;4.660;2024-01-15T13:15:27;2.03;;;1.50;;
83099;SDS011;72972;51.784;4.660;2024-01-15T13:17:56;5.85;;;1.48;;
83099;SDS011;72972;51.784;4.660;2024-01-15T13:20:24;4.93;;;2.15;;
83099;SDS011;72972;51.784;4.660;2024-01-15T13:22:50;5.80;;;2.17;;
83099;SDS011;72972;51.784;4.660;2024-01-15T13:25:19;5.68;;;1.70;;
83099;SDS011;72972;51.784;4.660;2024-01-15T13:27:51;5.88;;;1.65;;
83099;SDS011;72972;51.784;4.660;2024-01-15T13:30:17;5.38;;;1.92;;
83099;SDS011;72972;51.784;4.660;2024-01-15T13:32:45;7.20;;;2.25;;
83099;SDS011;72972;51.784;4.660;2024-01-15T13:35:19;4.15;;;1.75;;
83099;SDS011;72972;51.784;4.660;2024-01-15T13:37:54;5.72;;;1.77;;
83099;SDS011;72972;51.784;4.660;2024-01-15T13:40:34;9.20;;;1.88;;
83099;SDS011;72972;51.784;4.660;2024-01-15T13:43:02;3.92;;;1.60;;
83099;SDS011;72972;51.784;4.660;2024-01-15T13:48:26;1.85;;;1.02;;
83099;SDS011;72972;51.784;4.660;2024-01-15T13:51:02;7.82;;;1.73;;
83099;SDS011;72972;51.784;4.660;2024-01-15T13:53:28;2.80;;;1.00;;
83099;SDS011;72972;51.784;4.660;2024-01-15T13:56:00;3.05;;;1.40;;
83099;SDS011;72972;51.784;4.660;2024-01-15T13:58:30;1.27;;;1.00;;
83099;SDS011;72972;51.784;4.660;2024-01-15T14:01:11;3.50;;;1.30;;
83099;SDS011;72972;51.784;4.660;2024-01-15T14:03:45;1.73;;;0.82;;
83099;SDS011;72972;51.784;4.660;2024-01-15T14:06:27;4.95;;;1.25;;
83099;SDS011;72972;51.784;4.660;2024-01-15T14:09:25;6.70;;;1.20;;
83099;SDS011;72972;51.784;4.660;2024-01-15T14:11:57;3.75;;;1.20;;
83099;SDS011;72972;51.784;4.660;2024-01-15T14:14:26;0.98;;;0.80;;
83099;SDS011;72972;51.784;4.660;2024-01-15T14:17:04;4.15;;;1.08;;
83099;SDS011;72972;51.784;4.660;2024-01-15T14:19:51;9.68;;;1.80;;
83099;SDS011;72972;51.784;4.660;2024-01-15T14:22:23;9.93;;;1.70;;
83099;SDS011;72972;51.784;4.660;2024-01-15T14:25:14;4.47;;;1.55;;
83099;SDS011;72972;51.784;4.660;2024-01-15T14:27:55;2.47;;;1.42;;
83099;SDS011;72972;51.784;4.660;2024-01-15T14:30:27;3.33;;;1.55;;
83099;SDS011;72972;51.784;4.660;2024-01-15T14:33:30;3.78;;;1.50;;
83099;SDS011;72972;51.784;4.660;2024-01-15T14:36:13;3.47;;;1.80;;
83099;SDS011;72972;51.784;4.660;2024-01-15T14:38:51;4.07;;;2.00;;
83099;SDS011;72972;51.784;4.660;2024-01-15T14:42:00;2.78;;;1.60;;
83099;SDS011;72972;51.784;4.660;2024-01-15T14:44:42;4.22;;;1.63;;
83099;SDS011;72972;51.784;4.660;2024-01-15T14:47:13;4.25;;;1.70;;
83099;SDS011;72972;51.784;4.660;2024-01-15T14:49:51;4.30;;;1.67;;
83099;SDS011;72972;51.784;4.660;2024-01-15T14:52:29;3.55;;;1.38;;
83099;SDS011;72972;51.784;4.660;2024-01-15T14:55:03;4.78;;;1.70;;
83099;SDS011;72972;51.784;4.660;2024-01-15T14:57:49;6.43;;;2.10;;
83099;SDS011;72972;51.784;4.660;2024-01-15T15:00:24;5.10;;;1.75;;
83099;SDS011;72972;51.784;4.660;2024-01-15T15:03:04;2.50;;;1.02;;
83099;SDS011;72972;51.784;4.660;2024-01-15T15:05:48;7.22;;;2.30;;
83099;SDS011;72972;51.784;4.660;2024-01-15T15:08:14;2.70;;;1.20;;
83099;SDS011;72972;51.784;4.660;2024-01-15T15:11:02;9.10;;;2.30;;
83099;SDS011;72972;51.784;4.660;2024-01-15T15:13:55;5.75;;;1.63;;
83099;SDS011;72972;51.784;4.660;2024-01-15T15:16:21;9.30;;;1.77;;
83099;SDS011;72972;51.784;4.660;2024-01-15T15:18:53;3.75;;;1.35;;
83099;SDS011;72972;51.784;4.660;2024-01-15T15:21:46;3.13;;;1.65;;
83099;SDS011;72972;51.784;4.660;2024-01-15T15:24:24;5.30;;;1.65;;
83099;SDS011;72972;51.784;4.660;2024-01-15T15:26:52;2.17;;;1.55;;
83099;SDS011;72972;51.784;4.660;2024-01-15T15:29:31;7.05;;;2.45;;
83099;SDS011;72972;51.784;4.660;2024-01-15T15:32:37;7.78;;;1.85;;
83099;SDS011;72972;51.784;4.660;2024-01-15T15:35:20;8.48;;;2.03;;
83099;SDS011;72972;51.784;4.660;2024-01-15T15:37:54;4.45;;;1.63;;
83099;SDS011;72972;51.784;4.660;2024-01-15T15:40:54;9.35;;;2.50;;
83099;SDS011;72972;51.784;4.660;2024-01-15T15:43:37;7.78;;;1.77;;
83099;SDS011;72972;51.784;4.660;2024-01-15T15:46:33;5.25;;;1.42;;